Time;durP1;ratioP1;P1;durP2;ratioP2;P2;SDS_P1;SDS_P2;PMS_P1;PMS_P2;Temp;Humidity;BMP_temperature;BMP_pressure;BME280_temperature;BME280_humidity;BME280_pressure;Samples;Min_cycle;Max_cycle;Signal;HPM_P1;HPM_P2
2024/04/11 00:00:50;;;;;;;5.28;3.42;;;;;;;;;;5506603;25;20037;-82
2024/04/11 00:03:18;;;;;;;5.40;3.17;;;;;;;;;;5475585;26;20026;-81
2024/04/11 00:05:46;;;;;;;6.82;3.25;;;;;;;;;;5474021;26;20617;-81
2024/04/11 00:08:13;;;;;;;7.72;3.33;;;;;;;;;;5496288;26;20349;-82
2024/04/11 00:10:41;;;;;;;6.55;3.30;;;;;;;;;;5493838;26;20013;-81
2024/04/11 00:13:10;;;;;;;5.90;3.50;;;;;;;;;;5502221;26;19991;-81
2024/04/11 00:15:37;;;;;;;3.65;2.90;;;;;;;;;;5472943;26;20462;-82
2024/04/11 00:18:05;;;;;;;10.15;3.42;;;;;;;;;;5495702;26;19998;-81
2024/04/11 00:20:32;;;;;;;8.23;3.78;;;;;;;;;;5497328;26;20006;-81
2024/04/11 00:23:00;;;;;;;5.65;3.30;;;;;;;;;;5494857;26;20005;-81
2024/04/11 00:25:27;;;;;;;5.60;3.72;;;;;;;;;;5495302;26;20006;-81
2024/04/11 00:27:55;;;;;;;9.35;3.42;;;;;;;;;;5492818;26;20002;-82
2024/04/11 00:30:23;;;;;;;4.93;3.33;;;;;;;;;;5480093;26;20015;-82
2024/04/11 00:32:51;;;;;;;6.05;3.53;;;;;;;;;;5496114;26;20447;-82
2024/04/11 00:35:19;;;;;;;6.85;3.33;;;;;;;;;;5497886;26;20018;-81
2024/04/11 00:37:48;;;;;;;3.85;3.33;;;;;;;;;;5495915;26;19998;-82
2024/04/11 00:40:16;;;;;;;5.20;3.28;;;;;;;;;;5497457;26;20331;-82
2024/04/11 00:42:44;;;;;;;8.70;4.13;;;;;;;;;;5512213;26;20007;-82
2024/04/11 00:45:12;;;;;;;3.85;3.03;;;;;;;;;;5511652;25;20045;-81
2024/04/11 00:47:40;;;;;;;3.55;3.25;;;;;;;;;;5503005;26;20013;-81
2024/04/11 00:50:08;;;;;;;5.03;3.17;;;;;;;;;;5486463;26;20006;-81
2024/04/11 00:52:38;;;;;;;4.50;3.30;;;;;;;;;;5493763;26;19998;-81
2024/04/11 00:55:05;;;;;;;4.55;3.20;;;;;;;;;;5495858;26;20051;-82
2024/04/11 00:57:35;;;;;;;5.35;3.60;;;;;;;;;;5493673;26;20006;-82
2024/04/11 01:00:04;;;;;;;6.97;3.83;;;;;;;;;;5495915;26;20006;-81
2024/04/11 01:02:32;;;;;;;4.13;3.58;;;;;;;;;;5487510;26;19995;-81
2024/04/11 01:05:00;;;;;;;4.78;3.30;;;;;;;;;;5520492;26;20021;-81
2024/04/11 01:07:28;;;;;;;7.57;3.85;;;;;;;;;;5506024;26;19998;-81
2024/04/11 01:09:55;;;;;;;4.35;3.40;;;;;;;;;;5521009;25;20038;-81
2024/04/11 01:12:23;;;;;;;5.50;3.10;;;;;;;;;;5505263;26;19998;-81
2024/04/11 01:14:51;;;;;;;5.72;3.38;;;;;;;;;;5489486;26;20010;-81
2024/04/11 01:17:21;;;;;;;5.93;3.53;;;;;;;;;;5476493;26;20368;-81
2024/04/11 01:19:49;;;;;;;7.13;3.55;;;;;;;;;;5489770;26;19999;-81
2024/04/11 01:22:18;;;;;;;6.70;3.67;;;;;;;;;;5490159;26;20392;-81
2024/04/11 01:24:47;;;;;;;4.85;3.65;;;;;;;;;;5489562;26;20002;-81
2024/04/11 01:27:14;;;;;;;6.70;3.70;;;;;;;;;;5505176;26;20005;-81
2024/04/11 01:29:42;;;;;;;8.35;3.83;;;;;;;;;;5504208;26;20013;-82
2024/04/11 01:32:10;;;;;;;8.80;3.65;;;;;;;;;;5477013;26;20017;-81
2024/04/11 01:34:38;;;;;;;8.57;3.47;;;;;;;;;;5492859;26;20003;-81
2024/04/11 01:37:06;;;;;;;3.70;3.17;;;;;;;;;;5459863;26;20013;-82
2024/04/11 01:39:33;;;;;;;7.85;3.22;;;;;;;;;;5470812;26;20346;-81
2024/04/11 01:42:01;;;;;;;9.43;3.67;;;;;;;;;;5491114;26;20459;-81
2024/04/11 01:44:30;;;;;;;6.78;3.28;;;;;;;;;;5470263;26;19998;-82
2024/04/11 01:46:58;;;;;;;4.90;3.45;;;;;;;;;;5521940;26;20002;-82
2024/04/11 01:49:30;;;;;;;9.75;3.45;;;;;;;;;;5491571;26;20018;-82
2024/04/11 01:51:58;;;;;;;6.03;3.70;;;;;;;;;;5491973;26;19998;-81
2024/04/11 01:54:25;;;;;;;4.88;3.28;;;;;;;;;;5481514;26;20043;-82
2024/04/11 01:56:52;;;;;;;11.07;4.10;;;;;;;;;;5496803;26;20034;-81
2024/04/11 01:59:20;;;;;;;8.43;4.10;;;;;;;;;;5496129;26;20006;-81
2024/04/11 02:01:47;;;;;;;10.27;3.83;;;;;;;;;;5494533;26;20339;-81
2024/04/11 02:04:15;;;;;;;6.07;3.40;;;;;;;;;;5476184;26;20007;-81
2024/04/11 02:06:42;;;;;;;6.43;4.97;;;;;;;;;;5489586;26;20014;-81
2024/04/11 02:09:11;;;;;;;7.43;3.63;;;;;;;;;;5490921;26;19999;-81
2024/04/11 02:11:42;;;;;;;7.00;3.47;;;;;;;;;;5475445;26;20008;-81
2024/04/11 02:14:11;;;;;;;6.07;3.45;;;;;;;;;;5482525;26;20006;-81
2024/04/11 02:16:39;;;;;;;6.88;3.72;;;;;;;;;;5511264;26;19999;-81
2024/04/11 02:19:07;;;;;;;8.02;3.55;;;;;;;;;;5489791;26;19999;-81
2024/04/11 02:21:36;;;;;;;12.23;4.05;;;;;;;;;;5477008;26;20035;-81
2024/04/11 02:24:06;;;;;;;9.95;3.83;;;;;;;;;;5495049;26;20051;-81
2024/04/11 02:26:35;;;;;;;7.03;3.30;;;;;;;;;;5513463;25;20451;-81
2024/04/11 02:29:03;;;;;;;6.75;4.05;;;;;;;;;;5494549;26;20022;-81
2024/04/11 02:31:34;;;;;;;7.28;3.80;;;;;;;;;;5526770;26;20021;-81
2024/04/11 02:34:02;;;;;;;6.05;3.97;;;;;;;;;;5462867;26;20500;-81
2024/04/11 02:36:31;;;;;;;5.00;4.22;;;;;;;;;;5486633;26;20010;-81
2024/04/11 02:39:00;;;;;;;10.18;4.28;;;;;;;;;;5494329;26;20027;-81
2024/04/11 02:41:28;;;;;;;6.68;3.60;;;;;;;;;;5497025;26;20462;-81
2024/04/11 02:43:58;;;;;;;7.97;3.53;;;;;;;;;;5479538;26;20489;-81
2024/04/11 02:46:25;;;;;;;7.93;3.55;;;;;;;;;;5476732;26;20011;-81
2024/04/11 02:48:53;;;;;;;8.32;4.28;;;;;;;;;;5480507;26;20015;-81
2024/04/11 02:51:22;;;;;;;4.80;3.90;;;;;;;;;;5512413;25;20002;-81
2024/04/11 02:53:50;;;;;;;7.22;4.35;;;;;;;;;;5497700;26;20030;-82
2024/04/11 02:56:18;;;;;;;6.72;3.70;;;;;;;;;;5500261;26;19998;-82
2024/04/11 02:58:46;;;;;;;9.27;4.40;;;;;;;;;;5494974;26;19994;-81
2024/04/11 03:01:16;;;;;;;5.43;4.18;;;;;;;;;;5517136;25;19998;-81
2024/04/11 03:03:44;;;;;;;9.43;4.60;;;;;;;;;;5491867;26;19994;-81
2024/04/11 03:06:13;;;;;;;7.80;4.93;;;;;;;;;;5510208;26;20061;-81
2024/04/11 03:08:40;;;;;;;6.53;4.10;;;;;;;;;;5507229;26;19998;-79
2024/04/11 03:11:11;;;;;;;7.13;4.10;;;;;;;;;;5497188;26;20006;-79
2024/04/11 03:13:39;;;;;;;6.43;4.00;;;;;;;;;;5496887;26;19998;-79
2024/04/11 03:16:11;;;;;;;6.53;4.03;;;;;;;;;;5497703;26;20009;-80
2024/04/11 03:18:39;;;;;;;8.52;3.95;;;;;;;;;;5498998;26;20010;-79
2024/04/11 03:21:08;;;;;;;9.48;4.30;;;;;;;;;;5499079;26;19995;-80
2024/04/11 03:23:35;;;;;;;8.35;4.18;;;;;;;;;;5496393;26;20021;-79
2024/04/11 03:26:03;;;;;;;8.85;4.00;;;;;;;;;;5495583;26;20014;-80
2024/04/11 03:28:31;;;;;;;8.05;4.57;;;;;;;;;;5496010;26;20032;-82
2024/04/11 03:31:04;;;;;;;8.57;4.10;;;;;;;;;;5496815;26;20017;-79
2024/04/11 03:33:32;;;;;;;9.32;4.60;;;;;;;;;;5526763;26;20014;-79
2024/04/11 03:36:01;;;;;;;12.45;4.82;;;;;;;;;;5497919;26;20020;-80
2024/04/11 03:38:29;;;;;;;6.60;4.20;;;;;;;;;;5499281;26;20026;-79
2024/04/11 03:41:10;;;;;;;9.07;4.03;;;;;;;;;;5497453;26;20010;-80
2024/04/11 03:43:39;;;;;;;7.57;4.97;;;;;;;;;;5526870;26;20010;-79
2024/04/11 03:46:07;;;;;;;7.85;3.80;;;;;;;;;;5497403;26;20013;-79
2024/04/11 03:48:35;;;;;;;6.72;3.63;;;;;;;;;;5497842;26;20006;-79
2024/04/11 03:51:14;;;;;;;9.18;3.83;;;;;;;;;;5495974;26;20002;-80
2024/04/11 03:53:42;;;;;;;7.35;3.53;;;;;;;;;;5498717;26;20030;-80
2024/04/11 03:56:10;;;;;;;9.27;4.50;;;;;;;;;;5498621;26;20375;-80
2024/04/11 03:58:37;;;;;;;7.07;4.18;;;;;;;;;;5495592;26;20009;-80
2024/04/11 04:01:15;;;;;;;6.07;3.78;;;;;;;;;;5498036;26;20408;-79
2024/04/11 04:03:43;;;;;;;6.32;4.03;;;;;;;;;;5527241;26;19998;-79
2024/04/11 04:06:13;;;;;;;8.15;4.82;;;;;;;;;;5497264;26;20009;-79
2024/04/11 04:08:47;;;;;;;4.43;3.60;;;;;;;;;;5527398;26;20371;-79
2024/04/11 04:11:16;;;;;;;8.70;4.07;;;;;;;;;;5500292;26;19998;-80
2024/04/11 04:13:44;;;;;;;9.60;4.40;;;;;;;;;;5500772;26;20018;-79
2024/04/11 04:16:12;;;;;;;6.72;4.10;;;;;;;;;;5501740;26;20511;-81
2024/04/11 04:18:41;;;;;;;8.65;4.18;;;;;;;;;;5499432;26;20338;-79
2024/04/11 04:21:09;;;;;;;7.90;3.60;;;;;;;;;;5485358;26;20013;-81
2024/04/11 04:23:38;;;;;;;6.80;4.32;;;;;;;;;;5507665;26;19998;-81
2024/04/11 04:26:08;;;;;;;6.15;4.00;;;;;;;;;;5494402;26;19998;-79
2024/04/11 04:28:38;;;;;;;11.60;3.88;;;;;;;;;;5495149;26;20005;-79
2024/04/11 04:31:20;;;;;;;8.07;4.15;;;;;;;;;;5493699;26;20009;-80
2024/04/11 04:33:48;;;;;;;7.95;3.42;;;;;;;;;;5496335;26;20013;-79
2024/04/11 04:36:18;;;;;;;6.97;4.07;;;;;;;;;;5494164;26;20005;-80
2024/04/11 04:38:49;;;;;;;12.07;3.88;;;;;;;;;;5496146;26;20038;-79
2024/04/11 04:41:17;;;;;;;5.18;3.78;;;;;;;;;;5495900;26;20009;-80
2024/04/11 04:43:51;;;;;;;11.93;4.38;;;;;;;;;;5496165;26;20049;-79
2024/04/11 04:46:20;;;;;;;14.45;4.57;;;;;;;;;;5495405;26;19998;-79
2024/04/11 04:48:52;;;;;;;17.48;5.78;;;;;;;;;;5496043;26;20006;-79
2024/04/11 04:51:19;;;;;;;9.55;4.43;;;;;;;;;;5495573;26;20009;-79
2024/04/11 04:53:52;;;;;;;7.75;4.28;;;;;;;;;;5497947;26;20006;-79
2024/04/11 04:56:23;;;;;;;10.67;4.40;;;;;;;;;;5526466;26;20006;-79
2024/04/11 04:58:54;;;;;;;12.43;4.55;;;;;;;;;;5527512;26;20243;-79
2024/04/11 05:01:23;;;;;;;7.80;4.50;;;;;;;;;;5527409;25;20058;-79
2024/04/11 05:03:51;;;;;;;11.93;4.97;;;;;;;;;;5528009;25;20002;-79
2024/04/11 05:06:19;;;;;;;8.02;5.00;;;;;;;;;;5498434;26;19994;-79
2024/04/11 05:08:48;;;;;;;11.57;5.57;;;;;;;;;;5498234;26;20010;-79
2024/04/11 05:11:21;;;;;;;9.73;5.65;;;;;;;;;;5500324;26;20005;-80
2024/04/11 05:13:53;;;;;;;14.00;5.72;;;;;;;;;;5501269;26;20009;-82
2024/04/11 05:16:21;;;;;;;10.60;5.75;;;;;;;;;;5499383;26;19998;-81
2024/04/11 05:18:51;;;;;;;19.20;9.23;;;;;;;;;;5501481;26;20002;-81
2024/04/11 05:21:23;;;;;;;22.98;9.75;;;;;;;;;;5501861;26;20002;-81
2024/04/11 05:23:51;;;;;;;21.08;8.48;;;;;;;;;;5502055;26;20002;-81
2024/04/11 05:26:25;;;;;;;19.10;7.65;;;;;;;;;;5504509;26;19994;-79
2024/04/11 05:28:56;;;;;;;17.45;6.35;;;;;;;;;;5503156;26;19998;-80
2024/04/11 05:31:28;;;;;;;15.00;6.18;;;;;;;;;;5499147;26;20009;-80
2024/04/11 05:34:06;;;;;;;10.03;4.70;;;;;;;;;;5503938;26;20518;-80
2024/04/11 05:36:41;;;;;;;12.85;6.13;;;;;;;;;;5502753;26;20014;-81
2024/04/11 05:39:09;;;;;;;13.13;4.35;;;;;;;;;;5473674;26;20010;-84
2024/04/11 05:41:37;;;;;;;13.05;4.82;;;;;;;;;;5498306;26;20006;-80
2024/04/11 05:44:06;;;;;;;11.95;4.47;;;;;;;;;;5496022;26;20006;-81
2024/04/11 05:46:34;;;;;;;11.50;4.43;;;;;;;;;;5498343;26;20018;-81
2024/04/11 05:49:04;;;;;;;9.40;3.85;;;;;;;;;;5496278;26;20010;-80
2024/04/11 05:51:35;;;;;;;12.23;4.50;;;;;;;;;;5495617;26;20026;-81
2024/04/11 05:54:03;;;;;;;8.30;3.47;;;;;;;;;;5490430;26;20010;-80
2024/04/11 05:56:31;;;;;;;14.05;4.45;;;;;;;;;;5459560;26;19999;-79
2024/04/11 05:59:00;;;;;;;17.15;4.70;;;;;;;;;;5492377;26;19998;-81
2024/04/11 06:01:33;;;;;;;21.73;6.18;;;;;;;;;;5476566;26;20017;-85
2024/04/11 06:04:05;;;;;;;10.98;2.67;;;;;;;;;;5523379;26;20013;-85
2024/04/11 06:06:33;;;;;;;17.85;5.43;;;;;;;;;;5481537;26;20452;-85
2024/04/11 06:09:01;;;;;;;19.95;7.55;;;;;;;;;;5485780;26;19998;-83
2024/04/11 06:11:29;;;;;;;24.17;8.15;;;;;;;;;;5483542;26;20002;-85
2024/04/11 06:13:57;;;;;;;26.83;11.00;;;;;;;;;;5491410;26;20018;-85
2024/04/11 06:16:24;;;;;;;25.02;9.95;;;;;;;;;;5488572;26;20085;-84
2024/04/11 06:18:54;;;;;;;17.77;6.57;;;;;;;;;;5506269;26;20014;-84
2024/04/11 06:21:32;;;;;;;23.17;8.02;;;;;;;;;;5486915;26;20013;-85
2024/04/11 06:24:01;;;;;;;26.25;10.07;;;;;;;;;;5477398;26;20075;-85
2024/04/11 06:26:33;;;;;;;23.98;9.85;;;;;;;;;;5494477;26;20467;-84
2024/04/11 06:29:01;;;;;;;9.05;3.53;;;;;;;;;;5492096;26;20000;-85
2024/04/11 06:31:30;;;;;;;6.68;2.88;;;;;;;;;;5481888;26;20002;-85
2024/04/11 06:33:58;;;;;;;11.90;2.97;;;;;;;;;;5526909;26;20043;-84
2024/04/11 06:36:26;;;;;;;8.75;3.22;;;;;;;;;;5490432;26;20017;-85
2024/04/11 06:38:54;;;;;;;23.13;10.95;;;;;;;;;;5498446;26;19998;-85
2024/04/11 06:41:24;;;;;;;16.13;6.20;;;;;;;;;;5486533;26;20006;-86
2024/04/11 06:43:52;;;;;;;12.75;5.40;;;;;;;;;;5502307;26;20002;-85
2024/04/11 06:46:33;;;;;;;15.23;6.78;;;;;;;;;;5503638;26;20006;-86
2024/04/11 06:49:09;;;;;;;15.73;6.13;;;;;;;;;;5504221;26;20089;-86
2024/04/11 06:51:37;;;;;;;11.18;5.18;;;;;;;;;;5507071;26;20031;-84
2024/04/11 06:54:05;;;;;;;6.57;3.22;;;;;;;;;;5507513;26;20006;-84
2024/04/11 06:56:32;;;;;;;7.68;3.95;;;;;;;;;;5502230;26;20070;-83
2024/04/11 06:59:10;;;;;;;7.50;3.42;;;;;;;;;;5496088;26;20038;-82
2024/04/11 07:01:39;;;;;;;9.00;3.60;;;;;;;;;;5493861;26;20006;-83
2024/04/11 07:04:13;;;;;;;3.97;2.33;;;;;;;;;;5523294;25;20034;-83
2024/04/11 07:06:42;;;;;;;4.63;2.15;;;;;;;;;;5494028;26;20013;-83
2024/04/11 07:09:11;;;;;;;2.78;1.65;;;;;;;;;;5480655;26;20024;-83
2024/04/11 07:11:42;;;;;;;2.63;1.48;;;;;;;;;;5523585;25;19998;-82
2024/04/11 07:14:15;;;;;;;5.68;1.90;;;;;;;;;;5493346;26;20002;-82
2024/04/11 07:16:52;;;;;;;7.88;2.72;;;;;;;;;;5496597;26;20459;-82
2024/04/11 07:19:20;;;;;;;7.18;2.40;;;;;;;;;;5494708;26;20002;-82
2024/04/11 07:21:48;;;;;;;4.85;2.10;;;;;;;;;;5480066;26;19998;-83
2024/04/11 07:24:17;;;;;;;3.38;2.15;;;;;;;;;;5480183;26;20003;-83
2024/04/11 07:26:46;;;;;;;5.47;2.10;;;;;;;;;;5495420;26;20006;-82
2024/04/11 07:29:16;;;;;;;7.10;1.65;;;;;;;;;;5493992;26;20014;-83
2024/04/11 07:31:43;;;;;;;2.60;1.60;;;;;;;;;;5495940;26;20535;-83
2024/04/11 07:34:11;;;;;;;2.17;1.40;;;;;;;;;;5492125;26;20016;-82
2024/04/11 07:36:39;;;;;;;5.03;1.50;;;;;;;;;;5494197;26;20021;-83
2024/04/11 07:39:09;;;;;;;8.30;1.60;;;;;;;;;;5471775;26;19995;-81
2024/04/11 07:41:46;;;;;;;3.40;1.17;;;;;;;;;;5469704;26;19999;-82
2024/04/11 07:44:22;;;;;;;3.45;1.45;;;;;;;;;;5481029;26;19998;-83
2024/04/11 07:46:55;;;;;;;1.67;1.23;;;;;;;;;;5506697;26;20012;-81
2024/04/11 07:49:40;;;;;;;3.55;1.52;;;;;;;;;;5501874;26;20472;-83
2024/04/11 07:52:10;;;;;;;2.80;1.30;;;;;;;;;;5479636;26;20002;-80
2024/04/11 07:54:38;;;;;;;10.70;1.80;;;;;;;;;;5492293;26;20030;-80
2024/04/11 07:57:14;;;;;;;3.83;1.20;;;;;;;;;;5480995;26;20006;-80
2024/04/11 07:59:45;;;;;;;4.03;1.50;;;;;;;;;;5493231;26;20492;-80
2024/04/11 08:02:14;;;;;;;3.20;1.20;;;;;;;;;;5495207;26;20021;-82
2024/04/11 08:04:42;;;;;;;2.65;1.15;;;;;;;;;;5493403;26;20006;-81
2024/04/11 08:07:10;;;;;;;3.88;1.23;;;;;;;;;;5493682;26;20006;-81
2024/04/11 08:09:55;;;;;;;5.20;1.40;;;;;;;;;;5494499;26;20429;-81
2024/04/11 08:12:23;;;;;;;2.40;1.02;;;;;;;;;;5484203;26;20013;-81
2024/04/11 08:14:52;;;;;;;2.75;1.08;;;;;;;;;;5495149;26;20018;-79
2024/04/11 08:17:20;;;;;;;3.47;1.00;;;;;;;;;;5493413;26;19999;-81
2024/04/11 08:19:48;;;;;;;3.30;1.25;;;;;;;;;;5491650;26;20478;-79
2024/04/11 08:22:25;;;;;;;1.08;0.80;;;;;;;;;;5493920;26;20469;-78
2024/04/11 08:24:53;;;;;;;2.38;0.90;;;;;;;;;;5493770;26;20006;-81
2024/04/11 08:27:22;;;;;;;2.15;0.90;;;;;;;;;;5493106;26;19998;-81
2024/04/11 08:29:50;;;;;;;7.43;1.15;;;;;;;;;;5494522;26;20017;-82
2024/04/11 08:32:21;;;;;;;1.33;0.60;;;;;;;;;;5493655;26;20009;-81
2024/04/11 08:34:50;;;;;;;2.20;1.00;;;;;;;;;;5492942;26;20020;-81
2024/04/11 08:37:19;;;;;;;2.30;0.85;;;;;;;;;;5494347;26;20519;-83
2024/04/11 08:39:46;;;;;;;2.58;1.13;;;;;;;;;;5491894;26;20011;-79
2024/04/11 08:42:14;;;;;;;3.47;0.80;;;;;;;;;;5493991;26;20006;-80
2024/04/11 08:44:42;;;;;;;4.78;1.20;;;;;;;;;;5492249;26;20006;-79
2024/04/11 08:47:10;;;;;;;5.72;1.10;;;;;;;;;;5474600;26;20093;-78
2024/04/11 08:49:38;;;;;;;1.20;0.63;;;;;;;;;;5491650;26;20082;-79
2024/04/11 08:52:07;;;;;;;1.52;0.70;;;;;;;;;;5489596;26;20337;-78
2024/04/11 08:54:38;;;;;;;4.55;1.42;;;;;;;;;;5490477;26;20021;-78
2024/04/11 08:57:11;;;;;;;6.78;1.33;;;;;;;;;;5489800;26;20002;-77
2024/04/11 08:59:38;;;;;;;3.33;0.95;;;;;;;;;;5494733;26;20020;-82
2024/04/11 09:02:10;;;;;;;3.80;1.00;;;;;;;;;;5504795;26;19998;-80
2024/04/11 09:04:37;;;;;;;2.00;0.60;;;;;;;;;;5491478;26;20002;-82
2024/04/11 09:07:05;;;;;;;1.55;0.88;;;;;;;;;;5492326;26;20002;-81
2024/04/11 09:09:32;;;;;;;3.75;0.85;;;;;;;;;;5492376;26;20012;-82
2024/04/11 09:12:00;;;;;;;29.67;2.92;;;;;;;;;;5478155;26;20027;-79
2024/04/11 09:14:29;;;;;;;2.45;0.70;;;;;;;;;;5486749;26;20052;-79
2024/04/11 09:17:04;;;;;;;3.20;0.80;;;;;;;;;;5490241;26;20009;-78
2024/04/11 09:19:39;;;;;;;2.22;0.73;;;;;;;;;;5493504;26;20462;-79
2024/04/11 09:22:13;;;;;;;4.35;0.60;;;;;;;;;;5492932;26;20010;-80
2024/04/11 09:24:41;;;;;;;2.33;0.90;;;;;;;;;;5494674;26;20102;-81
2024/04/11 09:27:09;;;;;;;1.63;0.70;;;;;;;;;;5478495;26;20017;-80
2024/04/11 09:29:36;;;;;;;3.60;1.10;;;;;;;;;;5494222;26;20017;-81
2024/04/11 09:32:04;;;;;;;11.20;1.48;;;;;;;;;;5490208;26;20017;-77
2024/04/11 09:34:33;;;;;;;5.80;0.90;;;;;;;;;;5491211;26;20043;-79
2024/04/11 09:37:04;;;;;;;4.70;1.23;;;;;;;;;;5492696;26;20414;-78
2024/04/11 09:39:48;;;;;;;2.97;1.20;;;;;;;;;;5492450;26;20009;-80
2024/04/11 09:42:18;;;;;;;4.47;0.80;;;;;;;;;;5478214;26;20051;-79
2024/04/11 09:44:50;;;;;;;2.45;0.80;;;;;;;;;;5490618;26;20006;-77
2024/04/11 09:47:19;;;;;;;2.78;0.52;;;;;;;;;;5491418;26;20002;-81
2024/04/11 09:49:53;;;;;;;4.80;1.05;;;;;;;;;;5490698;26;20014;-83
2024/04/11 09:52:27;;;;;;;5.57;1.17;;;;;;;;;;5492056;26;20018;-82
2024/04/11 09:54:55;;;;;;;5.07;0.90;;;;;;;;;;5493787;26;20006;-78
2024/04/11 09:57:25;;;;;;;4.68;1.25;;;;;;;;;;5492678;26;20021;-79
2024/04/11 09:59:55;;;;;;;3.08;1.08;;;;;;;;;;5493691;26;20009;-79
2024/04/11 10:02:26;;;;;;;2.75;0.80;;;;;;;;;;5493504;26;20006;-81
2024/04/11 10:05:05;;;;;;;2.92;0.90;;;;;;;;;;5494498;26;19998;-80
2024/04/11 10:07:33;;;;;;;3.75;1.13;;;;;;;;;;5499495;26;20074;-81
2024/04/11 10:10:06;;;;;;;3.47;0.95;;;;;;;;;;5491809;26;20027;-82
2024/04/11 10:12:40;;;;;;;1.23;0.68;;;;;;;;;;5489542;26;20078;-79
2024/04/11 10:15:09;;;;;;;;;;;;;;;;;;5492080;26;20071;-77
2024/04/11 10:17:36;;;;;;;3.30;1.40;;;;;;;;;;5489910;26;19923;-81
2024/04/11 10:20:12;;;;;;;4.15;1.40;;;;;;;;;;5493549;26;20455;-81
2024/04/11 10:22:47;;;;;;;3.20;0.90;;;;;;;;;;5492490;26;20006;-81
2024/04/11 10:25:18;;;;;;;4.82;0.90;;;;;;;;;;5478804;26;20011;-79
2024/04/11 10:27:47;;;;;;;3.10;0.95;;;;;;;;;;5492855;26;20009;-80
2024/04/11 10:30:17;;;;;;;1.90;0.60;;;;;;;;;;5494128;26;20006;-79
2024/04/11 10:32:46;;;;;;;2.05;0.60;;;;;;;;;;5494268;26;20013;-80
2024/04/11 10:35:19;;;;;;;2.47;0.73;;;;;;;;;;5525258;25;20010;-80
2024/04/11 10:37:49;;;;;;;1.45;0.70;;;;;;;;;;5497047;26;20473;-79
2024/04/11 10:40:17;;;;;;;2.25;0.50;;;;;;;;;;5495174;26;20006;-79
2024/04/11 10:45:39;;;;;;;2.25;0.55;;;;;;;;;;5499269;26;20074;-82
2024/04/11 10:48:14;;;;;;;1.75;0.80;;;;;;;;;;5494535;26;20014;-81
2024/04/11 10:50:42;;;;;;;3.30;0.93;;;;;;;;;;5495081;26;20021;-80
2024/04/11 10:53:12;;;;;;;4.20;0.85;;;;;;;;;;5523602;26;20006;-81
2024/04/11 10:55:43;;;;;;;2.28;0.70;;;;;;;;;;5494827;26;20074;-81
2024/04/11 10:58:13;;;;;;;5.50;0.88;;;;;;;;;;5492427;26;20002;-79
2024/04/11 11:06:39;;;;;;;2.15;0.85;;;;;;;;;;5495353;26;20014;-81
2024/04/11 11:09:13;;;;;;;1.50;0.65;;;;;;;;;;5493100;26;20026;-81
2024/04/11 11:11:42;;;;;;;2.28;0.85;;;;;;;;;;5523782;26;20009;-81
2024/04/11 11:14:10;;;;;;;4.63;0.75;;;;;;;;;;5492035;26;20002;-81
2024/04/11 11:16:43;;;;;;;2.63;0.70;;;;;;;;;;5495240;26;20319;-80
2024/04/11 11:19:13;;;;;;;2.10;0.63;;;;;;;;;;5480291;26;20002;-79
2024/04/11 11:21:45;;;;;;;1.15;0.40;;;;;;;;;;5494561;26;20030;-81
2024/04/11 11:24:16;;;;;;;2.00;0.70;;;;;;;;;;5478023;26;20078;-80
2024/04/11 11:26:44;;;;;;;1.60;0.60;;;;;;;;;;5495210;26;20492;-80
2024/04/11 11:29:12;;;;;;;3.33;0.77;;;;;;;;;;5494441;26;20055;-82
2024/04/11 11:31:43;;;;;;;2.67;0.80;;;;;;;;;;5492592;26;20010;-82
2024/04/11 11:34:11;;;;;;;2.55;0.70;;;;;;;;;;5508691;26;20006;-81
2024/04/11 11:36:45;;;;;;;2.75;0.90;;;;;;;;;;5492682;26;20014;-82
2024/04/11 11:39:17;;;;;;;2.15;0.90;;;;;;;;;;5481308;26;20073;-81
2024/04/11 11:41:49;;;;;;;2.20;0.60;;;;;;;;;;5493674;26;20070;-81
2024/04/11 11:44:18;;;;;;;1.77;0.60;;;;;;;;;;5492460;26;20013;-83
2024/04/11 11:46:49;;;;;;;1.05;0.50;;;;;;;;;;5493295;26;20003;-83
2024/04/11 11:49:18;;;;;;;2.85;1.08;;;;;;;;;;5493544;26;20002;-82
2024/04/11 11:51:48;;;;;;;3.30;0.70;;;;;;;;;;5495210;26;20046;-79
2024/04/11 11:54:16;;;;;;;4.00;0.73;;;;;;;;;;5524901;25;20129;-82
2024/04/11 11:56:44;;;;;;;4.43;0.70;;;;;;;;;;5524733;25;20028;-82
2024/04/11 11:59:11;;;;;;;2.30;0.70;;;;;;;;;;5526484;25;19998;-81
2024/04/11 12:01:42;;;;;;;1.40;0.52;;;;;;;;;;5525910;26;20005;-82
2024/04/11 12:04:10;;;;;;;1.75;0.60;;;;;;;;;;5496366;26;20005;-80
2024/04/11 12:06:44;;;;;;;1.60;0.93;;;;;;;;;;5493247;26;20103;-81
2024/04/11 12:09:11;;;;;;;4.40;0.80;;;;;;;;;;5478564;26;20013;-79
2024/04/11 12:14:34;;;;;;;4.32;0.90;;;;;;;;;;5494776;26;19998;-81
2024/04/11 12:17:05;;;;;;;4.25;1.05;;;;;;;;;;5502547;26;20439;-81
2024/04/11 12:19:35;;;;;;;4.07;1.30;;;;;;;;;;5476473;26;20342;-81
2024/04/11 12:22:11;;;;;;;2.15;0.80;;;;;;;;;;5477361;26;20014;-81
2024/04/11 12:24:39;;;;;;;1.60;0.50;;;;;;;;;;5492205;26;20005;-78
2024/04/11 12:27:07;;;;;;;1.25;0.80;;;;;;;;;;5497964;26;20006;-80
2024/04/11 12:29:34;;;;;;;3.55;1.30;;;;;;;;;;5495428;26;20014;-81
2024/04/11 12:32:03;;;;;;;4.75;0.80;;;;;;;;;;5491891;26;20010;-80
2024/04/11 12:34:32;;;;;;;3.38;1.05;;;;;;;;;;5492949;26;20002;-81
2024/04/11 12:37:16;;;;;;;2.80;0.70;;;;;;;;;;5492108;26;20006;-81
2024/04/11 12:39:56;;;;;;;2.17;0.75;;;;;;;;;;5490710;26;19998;-81
2024/04/11 12:42:29;;;;;;;5.10;1.05;;;;;;;;;;5491058;26;20017;-82
2024/04/11 12:45:02;;;;;;;1.05;0.98;;;;;;;;;;5491154;26;20006;-80
2024/04/11 12:47:39;;;;;;;4.28;1.00;;;;;;;;;;5491308;26;20002;-81
2024/04/11 12:50:13;;;;;;;2.00;0.82;;;;;;;;;;5493116;26;20013;-81
2024/04/11 12:52:44;;;;;;;1.40;0.73;;;;;;;;;;5522125;26;20010;-81
2024/04/11 12:55:13;;;;;;;3.75;1.40;;;;;;;;;;5476964;26;20013;-81
2024/04/11 12:57:41;;;;;;;1.52;0.90;;;;;;;;;;5493619;26;20459;-80
2024/04/11 13:00:34;;;;;;;1.67;0.77;;;;;;;;;;5476564;26;20002;-81
2024/04/11 13:03:06;;;;;;;1.48;0.60;;;;;;;;;;5493195;26;20080;-80
2024/04/11 13:05:51;;;;;;;3.50;1.10;;;;;;;;;;5494111;26;20001;-80
2024/04/11 13:08:19;;;;;;;3.88;0.95;;;;;;;;;;5492618;26;20082;-83
2024/04/11 13:11:06;;;;;;;1.98;0.80;;;;;;;;;;5492887;26;19998;-82
2024/04/11 13:13:39;;;;;;;2.10;0.80;;;;;;;;;;5493530;26;20359;-81
2024/04/11 13:16:11;;;;;;;7.40;1.23;;;;;;;;;;5479081;26;20002;-81
2024/04/11 13:18:38;;;;;;;5.15;1.17;;;;;;;;;;5494665;26;20002;-83
2024/04/11 13:21:30;;;;;;;1.65;0.75;;;;;;;;;;5492488;26;20489;-79
2024/04/11 13:23:59;;;;;;;2.33;0.90;;;;;;;;;;5493272;26;19998;-81
2024/04/11 13:26:27;;;;;;;3.00;0.98;;;;;;;;;;5520506;25;20051;-82
2024/04/11 13:28:58;;;;;;;6.55;0.93;;;;;;;;;;5488548;26;20006;-80
2024/04/11 13:31:26;;;;;;;2.25;0.80;;;;;;;;;;5489949;26;20006;-81
2024/04/11 13:33:54;;;;;;;1.35;0.60;;;;;;;;;;5489739;26;19994;-81
2024/04/11 13:36:23;;;;;;;1.83;0.70;;;;;;;;;;5489564;26;20082;-80
2024/04/11 13:38:52;;;;;;;3.90;1.10;;;;;;;;;;5487718;26;20006;-81
2024/04/11 13:44:07;;;;;;;3.33;0.80;;;;;;;;;;5489472;26;20002;-81
2024/04/11 13:46:34;;;;;;;2.47;0.80;;;;;;;;;;5490031;26;20014;-81
2024/04/11 13:51:52;;;;;;;1.20;0.57;;;;;;;;;;5488649;26;20471;-82
2024/04/11 13:54:21;;;;;;;1.55;0.90;;;;;;;;;;5470186;26;19999;-80
2024/04/11 13:56:59;;;;;;;2.30;1.02;;;;;;;;;;5488252;26;20047;-81
2024/04/11 13:59:28;;;;;;;2.80;0.60;;;;;;;;;;5494218;26;19998;-81
2024/04/11 14:01:59;;;;;;;3.60;0.90;;;;;;;;;;5496000;26;20503;-81
2024/04/11 14:04:46;;;;;;;2.85;0.70;;;;;;;;;;5493758;26;20082;-81
2024/04/11 14:07:19;;;;;;;6.90;1.02;;;;;;;;;;5493342;26;20462;-82
2024/04/11 14:09:46;;;;;;;1.02;0.73;;;;;;;;;;5494568;26;20022;-82
2024/04/11 14:12:16;;;;;;;3.80;0.70;;;;;;;;;;5493571;26;20014;-80
2024/04/11 14:14:44;;;;;;;5.18;0.80;;;;;;;;;;5496424;26;20010;-80
2024/04/11 14:17:22;;;;;;;1.73;0.70;;;;;;;;;;5495702;26;20006;-83
2024/04/11 14:22:47;;;;;;;1.85;0.43;;;;;;;;;;5497155;26;19998;-83
2024/04/11 14:27:50;;;;;;;6.88;0.88;;;;;;;;;;5496981;26;20363;-82
2024/04/11 14:30:25;;;;;;;4.68;1.20;;;;;;;;;;5496065;26;20033;-82
2024/04/11 14:38:10;;;;;;;2.75;0.93;;;;;;;;;;5482964;26;20073;-82
2024/04/11 14:40:38;;;;;;;3.05;0.75;;;;;;;;;;5497533;26;20034;-82
2024/04/11 14:43:10;;;;;;;1.52;0.60;;;;;;;;;;5497647;26;20030;-82
2024/04/11 14:45:41;;;;;;;1.20;0.68;;;;;;;;;;5511621;26;19999;-80
2024/04/11 14:48:21;;;;;;;5.80;0.68;;;;;;;;;;5481370;26;20009;-82
2024/04/11 14:50:55;;;;;;;4.10;1.08;;;;;;;;;;5523604;26;19994;-81
2024/04/11 14:53:24;;;;;;;62.03;4.45;;;;;;;;;;5493804;26;20002;-82
2024/04/11 14:55:56;;;;;;;6.43;0.90;;;;;;;;;;5523149;25;20006;-82
2024/04/11 14:58:30;;;;;;;2.40;1.48;;;;;;;;;;5523998;26;20461;-82
2024/04/11 15:01:14;;;;;;;1.92;0.88;;;;;;;;;;5493200;26;20045;-81
2024/04/11 15:03:45;;;;;;;3.17;0.90;;;;;;;;;;5490214;26;20478;-82
2024/04/11 15:06:16;;;;;;;1.70;0.60;;;;;;;;;;5478355;26;20006;-82
2024/04/11 15:08:46;;;;;;;3.60;1.30;;;;;;;;;;5494547;26;20026;-81
2024/04/11 15:11:22;;;;;;;7.85;0.90;;;;;;;;;;5492649;26;20010;-82
2024/04/11 15:13:53;;;;;;;4.05;0.88;;;;;;;;;;5492574;26;20466;-80
2024/04/11 15:18:54;;;;;;;8.80;0.93;;;;;;;;;;5493399;26;20439;-82
2024/04/11 15:21:44;;;;;;;8.63;5.40;;;;;;;;;;5492603;26;20038;-82
2024/04/11 15:24:13;;;;;;;3.53;0.88;;;;;;;;;;5469975;26;20000;-82
2024/04/11 15:26:54;;;;;;;3.55;0.70;;;;;;;;;;5487944;26;20018;-82
2024/04/11 15:29:22;;;;;;;0.88;0.77;;;;;;;;;;5482167;26;20014;-81